createdAt,value
2023-05-01T00:01:44.503Z,101781.94
2023-05-01T00:04:13.035Z,101781.34
2023-05-01T00:06:42.371Z,101780.03
2023-05-01T00:09:10.589Z,101773.13
2023-05-01T00:11:38.381Z,101772.38
2023-05-01T00:14:06.326Z,101767.06
2023-05-01T00:16:35.632Z,101767.16
2023-05-01T00:19:04.993Z,101764.09
2023-05-01T00:21:32.769Z,101757.38
2023-05-01T00:24:01.908Z,101752.66
2023-05-01T00:26:31.292Z,101748.84
2023-05-01T00:28:59.255Z,101743.81
2023-05-01T00:31:27.135Z,101743.03
2023-05-01T00:33:55.062Z,101742.22
2023-05-01T00:36:22.866Z,101733.56
2023-05-01T00:38:50.624Z,101742.88
2023-05-01T00:41:19.787Z,101733.38
2023-05-01T00:43:47.607Z,101728.44
2023-05-01T00:46:15.588Z,101722.00
2023-05-01T00:48:43.496Z,101720.16
2023-05-01T00:51:12.118Z,101715.25
2023-05-01T00:53:41.593Z,101705.66
2023-05-01T00:56:09.680Z,101708.06
2023-05-01T00:58:39.043Z,101704.44
2023-05-01T01:01:08.902Z,101698.88
2023-05-01T01:03:37.284Z,101698.38
2023-05-01T01:06:10.585Z,101689.97
2023-05-01T01:08:43.079Z,101688.75
2023-05-01T01:11:21.527Z,101685.06
2023-05-01T01:13:56.993Z,101685.63
2023-05-01T01:16:34.014Z,101675.44
2023-05-01T01:19:19.447Z,101675.91
2023-05-01T01:21:52.687Z,101675.50
2023-05-01T01:24:37.164Z,101666.22
2023-05-01T01:27:46.354Z,101664.59
2023-05-01T01:30:49.520Z,101658.72
2023-05-01T01:33:52.345Z,101654.53
2023-05-01T01:36:23.563Z,101649.97
2023-05-01T01:38:58.378Z,101649.44
2023-05-01T01:41:32.455Z,101641.88
2023-05-01T01:44:05.157Z,101635.56
2023-05-01T01:46:38.215Z,101631.88
2023-05-01T01:49:10.679Z,101629.00
2023-05-01T01:51:42.270Z,101625.72
2023-05-01T01:54:12.632Z,101622.22
2023-05-01T01:56:42.971Z,101618.72
2023-05-01T01:59:12.275Z,101623.22
2023-05-01T02:01:42.307Z,101611.34
2023-05-01T02:04:12.802Z,101617.44
2023-05-01T02:06:41.859Z,101599.19
2023-05-01T02:09:11.660Z,101597.78
2023-05-01T02:11:41.700Z,101593.75
2023-05-01T02:14:12.509Z,101587.75
2023-05-01T02:16:42.794Z,101590.06
2023-05-01T02:19:14.170Z,101586.09
2023-05-01T02:21:43.269Z,101584.91
2023-05-01T02:24:12.720Z,101587.22
2023-05-01T02:26:44.250Z,101581.75
2023-05-01T02:29:12.067Z,101583.38
2023-05-01T02:31:40.024Z,101575.31
2023-05-01T02:34:08.442Z,101574.22
2023-05-01T02:36:38.055Z,101572.69
2023-05-01T02:39:06.590Z,101573.00
2023-05-01T02:41:36.163Z,101571.59
2023-05-01T02:44:07.070Z,101565.59
2023-05-01T02:46:38.035Z,101563.63
2023-05-01T02:49:07.502Z,101565.19
2023-05-01T02:51:38.407Z,101563.97
2023-05-01T02:54:06.913Z,101558.19
2023-05-01T02:56:35.018Z,101555.13
2023-05-01T02:59:02.866Z,101556.34
2023-05-01T03:01:30.807Z,101553.28
2023-05-01T03:03:58.825Z,101549.78
2023-05-01T03:06:29.007Z,101550.00
2023-05-01T03:08:58.199Z,101541.38
2023-05-01T03:11:26.289Z,101537.66
2023-05-01T03:13:54.062Z,101540.84
2023-05-01T03:16:21.845Z,101540.94
2023-05-01T03:18:49.654Z,101529.47
2023-05-01T03:21:18.373Z,101529.59
2023-05-01T03:23:46.902Z,101520.94
2023-05-01T03:26:16.126Z,101518.91
2023-05-01T03:28:43.892Z,101516.03
2023-05-01T03:31:11.825Z,101510.16
2023-05-01T03:33:41.078Z,101513.97
2023-05-01T03:36:10.064Z,101508.31
2023-05-01T03:38:38.504Z,101512.47
2023-05-01T03:41:12.008Z,101505.69
2023-05-01T03:44:01.130Z,101504.69
2023-05-01T03:46:36.210Z,101501.22
2023-05-01T03:49:05.156Z,101503.16
2023-05-01T03:51:38.564Z,101503.28
2023-05-01T03:54:06.473Z,101506.78
2023-05-01T03:56:47.727Z,101500.56
2023-05-01T03:59:17.130Z,101500.97
2023-05-01T04:01:45.029Z,101497.94
2023-05-01T04:04:13.911Z,101484.41
2023-05-01T04:06:45.375Z,101490.81
2023-05-01T04:09:13.343Z,101495.31
2023-05-01T04:11:41.071Z,101488.66
2023-05-01T04:14:08.974Z,101493.22
2023-05-01T04:16:38.939Z,101491.47
2023-05-01T04:19:07.117Z,101488.09
2023-05-01T04:21:37.836Z,101485.81
2023-05-01T04:24:06.213Z,101479.59
2023-05-01T04:26:34.020Z,101479.84
2023-05-01T04:29:02.576Z,101486.38
2023-05-01T04:31:30.619Z,101480.94
2023-05-01T04:33:59.823Z,101480.47
2023-05-01T04:36:27.614Z,101481.34
2023-05-01T04:38:55.350Z,101473.59
2023-05-01T04:41:23.359Z,101482.88
2023-05-01T04:43:51.115Z,101483.19
2023-05-01T04:46:20.001Z,101481.13
2023-05-01T04:48:48.383Z,101482.66
2023-05-01T04:51:17.701Z,101488.22
2023-05-01T04:53:45.481Z,101489.75
2023-05-01T04:56:21.665Z,101486.38
2023-05-01T04:58:52.520Z,101485.28
2023-05-01T05:01:23.161Z,101485.81
2023-05-01T05:03:51.409Z,101479.38
2023-05-01T05:06:21.236Z,101481.78
2023-05-01T05:08:51.831Z,101477.84
2023-05-01T05:11:19.966Z,101487.13
2023-05-01T05:13:53.127Z,101478.31
2023-05-01T05:16:20.973Z,101475.44
2023-05-01T05:18:48.808Z,101481.31
2023-05-01T05:21:17.442Z,101481.66
2023-05-01T05:23:51.830Z,101486.47
2023-05-01T05:26:19.596Z,101478.94
2023-05-01T05:28:48.474Z,101485.81
2023-05-01T05:31:16.397Z,101490.94
2023-05-01T05:33:44.710Z,101486.59
2023-05-01T05:36:13.879Z,101477.97
2023-05-01T05:38:43.987Z,101474.13
2023-05-01T05:41:17.654Z,101480.38
2023-05-01T05:43:46.194Z,101475.09
2023-05-01T05:46:14.028Z,101474.22
2023-05-01T05:48:43.090Z,101472.88
2023-05-01T05:51:11.321Z,101469.88
2023-05-01T05:53:39.154Z,101469.41
2023-05-01T05:56:08.330Z,101469.28
2023-05-01T05:58:37.665Z,101464.03
2023-05-01T06:01:06.992Z,101462.69
2023-05-01T06:03:36.167Z,101462.38
2023-05-01T06:06:04.578Z,101465.44
2023-05-01T06:08:32.455Z,101463.03
2023-05-01T06:11:00.229Z,101465.09
2023-05-01T06:13:28.178Z,101469.50
2023-05-01T06:15:57.439Z,101469.38
2023-05-01T06:18:26.132Z,101464.88
2023-05-01T06:20:54.444Z,101459.28
2023-05-01T06:23:22.268Z,101457.66
2023-05-01T06:26:15.868Z,101456.31
2023-05-01T06:28:43.716Z,101463.50
2023-05-01T06:31:13.001Z,101453.22
2023-05-01T06:33:47.083Z,101448.69
2023-05-01T06:36:24.871Z,101449.19
2023-05-01T06:38:52.702Z,101454.41
2023-05-01T06:41:22.095Z,101451.72
2023-05-01T06:43:49.896Z,101449.19
2023-05-01T06:46:19.386Z,101454.72
2023-05-01T06:48:48.940Z,101444.72
2023-05-01T06:51:16.730Z,101454.19
2023-05-01T06:53:44.524Z,101449.78
2023-05-01T06:56:12.290Z,101445.38
2023-05-01T06:58:40.095Z,101449.06
2023-05-01T07:01:08.406Z,101449.66
2023-05-01T07:03:37.764Z,101449.88
2023-05-01T07:06:05.718Z,101448.63
2023-05-01T07:08:33.584Z,101444.25
2023-05-01T07:11:01.436Z,101449.44
2023-05-01T07:13:29.276Z,101444.59
2023-05-01T07:15:57.086Z,101445.06
2023-05-01T07:18:25.000Z,101440.44
2023-05-01T07:20:54.135Z,101450.78
2023-05-01T07:23:23.587Z,101449.41
2023-05-01T07:25:51.778Z,101443.78
2023-05-01T07:28:20.533Z,101437.72
2023-05-01T07:30:48.334Z,101443.66
2023-05-01T07:33:16.494Z,101450.81
2023-05-01T07:35:44.382Z,101448.38
2023-05-01T07:38:14.043Z,101450.97
2023-05-01T07:40:42.060Z,101444.56
2023-05-01T07:43:11.251Z,101448.69
2023-05-01T07:45:39.359Z,101448.38
2023-05-01T07:48:07.550Z,101449.47
2023-05-01T07:50:35.422Z,101444.16
2023-05-01T07:53:03.152Z,101452.66
2023-05-01T07:55:32.323Z,101441.09
2023-05-01T07:58:00.191Z,101450.69
2023-05-01T08:00:27.971Z,101451.13
2023-05-01T08:02:56.366Z,101445.34
2023-05-01T08:05:24.207Z,101456.78
2023-05-01T08:07:51.995Z,101443.53
2023-05-01T08:10:19.791Z,101447.50
2023-05-01T08:12:48.955Z,101450.06
2023-05-01T08:15:16.809Z,101445.34
2023-05-01T08:17:44.601Z,101448.56
2023-05-01T08:20:13.997Z,101443.66
2023-05-01T08:22:41.809Z,101452.81
2023-05-01T08:25:09.818Z,101449.94
2023-05-01T08:27:37.656Z,101451.75
2023-05-01T08:30:08.462Z,101445.81
2023-05-01T08:32:36.312Z,101444.59
2023-05-01T08:35:04.161Z,101445.34
2023-05-01T08:37:31.955Z,101443.22
2023-05-01T08:39:59.706Z,101447.19
2023-05-01T08:42:27.811Z,101455.25
2023-05-01T08:45:00.401Z,101443.34
2023-05-01T08:47:30.504Z,101449.44
2023-05-01T08:49:59.122Z,101455.25
2023-05-01T08:52:30.013Z,101450.69
2023-05-01T08:55:01.436Z,101450.81
2023-05-01T08:57:32.919Z,101457.84
2023-05-01T09:00:02.558Z,101446.72
2023-05-01T09:02:35.614Z,101450.19
2023-05-01T09:05:04.974Z,101452.66
2023-05-01T09:07:32.958Z,101456.16
2023-05-01T09:10:00.753Z,101449.59
2023-05-01T09:12:29.114Z,101452.78
2023-05-01T09:14:58.278Z,101453.06
2023-05-01T09:17:26.527Z,101457.59
2023-05-01T09:19:55.948Z,101451.38
2023-05-01T09:22:24.029Z,101454.25
2023-05-01T09:24:51.807Z,101455.25
2023-05-01T09:27:20.394Z,101452.19
2023-05-01T09:29:49.196Z,101454.59
2023-05-01T09:32:20.551Z,101463.09
2023-05-01T09:34:49.135Z,101461.94
2023-05-01T09:37:28.660Z,101464.66
2023-05-01T09:40:05.025Z,101465.28
2023-05-01T09:42:33.727Z,101460.31
2023-05-01T09:45:02.123Z,101464.50
2023-05-01T09:47:30.517Z,101466.28
2023-05-01T09:49:59.632Z,101470.00
2023-05-01T09:52:30.146Z,101472.28
2023-05-01T09:55:14.113Z,101475.25
2023-05-01T09:57:42.904Z,101471.00
2023-05-01T10:00:12.325Z,101477.53
2023-05-01T10:02:40.788Z,101465.59
2023-05-01T10:05:11.157Z,101463.78
2023-05-01T10:07:41.069Z,101463.75
2023-05-01T10:10:18.783Z,101455.94
2023-05-01T10:12:46.909Z,101462.03
2023-05-01T10:15:24.849Z,101459.16
2023-05-01T10:17:55.492Z,101457.13
2023-05-01T10:20:23.472Z,101464.00
2023-05-01T10:22:52.766Z,101462.41
2023-05-01T10:25:22.652Z,101468.22
2023-05-01T10:27:52.922Z,101471.66
2023-05-01T10:30:22.209Z,101468.97
2023-05-01T10:32:50.651Z,101468.16
2023-05-01T10:35:22.670Z,101469.94
2023-05-01T10:37:59.598Z,101474.88
2023-05-01T10:40:47.884Z,101472.13
2023-05-01T10:43:20.949Z,101472.19
2023-05-01T10:45:49.698Z,101474.94
2023-05-01T10:48:53.988Z,101477.06
2023-05-01T10:51:24.919Z,101476.56
2023-05-01T10:54:29.359Z,101476.69
2023-05-01T10:56:59.443Z,101483.69
2023-05-01T10:59:27.628Z,101480.59
2023-05-01T11:01:55.779Z,101487.50
2023-05-01T11:04:54.385Z,101475.56
2023-05-01T11:07:23.921Z,101477.66
2023-05-01T11:09:55.884Z,101486.56
2023-05-01T11:12:49.598Z,101482.34
2023-05-01T11:15:27.197Z,101483.69
2023-05-01T11:17:55.984Z,101484.44
2023-05-01T11:20:49.871Z,101488.22
2023-05-01T11:23:21.739Z,101487.03
2023-05-01T11:25:54.117Z,101480.81
2023-05-01T11:28:25.653Z,101478.63
2023-05-01T11:30:54.715Z,101481.16
2023-05-01T11:33:27.468Z,101480.94
2023-05-01T11:36:02.732Z,101477.41
2023-05-01T11:38:30.807Z,101480.47
2023-05-01T11:41:02.054Z,101478.50
2023-05-01T11:43:29.830Z,101481.56
2023-05-01T11:46:02.665Z,101478.59
2023-05-01T11:48:32.530Z,101481.44
2023-05-01T11:51:00.459Z,101468.88
2023-05-01T11:53:28.740Z,101473.66
2023-05-01T11:55:56.820Z,101475.69
2023-05-01T11:58:36.510Z,101472.59
2023-05-01T12:01:07.236Z,101473.72
2023-05-01T12:03:45.551Z,101465.28
2023-05-01T12:06:14.411Z,101478.19
2023-05-01T12:08:50.950Z,101477.47
2023-05-01T12:11:20.552Z,101483.53
2023-05-01T12:13:50.250Z,101489.84
2023-05-01T12:16:18.417Z,101479.97
2023-05-01T12:18:46.980Z,101478.31
2023-05-01T12:21:17.760Z,101469.97
2023-05-01T12:23:45.507Z,101473.28
2023-05-01T12:26:18.127Z,101475.47
2023-05-01T12:28:57.903Z,101486.22
2023-05-01T12:31:27.038Z,101493.47
2023-05-01T12:33:56.688Z,101495.69
2023-05-01T12:36:25.794Z,101498.31
2023-05-01T12:38:59.129Z,101495.75
2023-05-01T12:41:34.754Z,101491.28
2023-05-01T12:44:04.201Z,101497.06
2023-05-01T12:46:32.186Z,101489.50
2023-05-01T12:49:00.065Z,101498.06
2023-05-01T12:51:28.544Z,101504.38
2023-05-01T12:53:58.226Z,101496.56
2023-05-01T12:56:26.894Z,101495.81
2023-05-01T12:58:55.311Z,101493.81
2023-05-01T13:01:28.112Z,101499.09
2023-05-01T13:03:58.051Z,101490.53
2023-05-01T13:06:34.533Z,101488.25
2023-05-01T13:09:10.496Z,101484.75
2023-05-01T13:11:39.066Z,101487.25
2023-05-01T13:14:08.973Z,101485.75
2023-05-01T13:16:46.688Z,101488.28
2023-05-01T13:19:15.520Z,101483.72
2023-05-01T13:21:50.753Z,101480.69
2023-05-01T13:24:18.675Z,101487.75
2023-05-01T13:26:46.639Z,101482.47
2023-05-01T13:29:16.388Z,101481.97
2023-05-01T13:31:46.727Z,101485.19
2023-05-01T13:34:27.566Z,101491.91
2023-05-01T13:36:56.073Z,101480.28
2023-05-01T13:39:24.153Z,101491.41
2023-05-01T13:41:52.390Z,101489.88
2023-05-01T13:44:21.581Z,101493.84
2023-05-01T13:46:51.061Z,101494.78
2023-05-01T13:49:22.836Z,101489.00
2023-05-01T13:51:50.927Z,101486.94
2023-05-01T13:54:20.426Z,101500.47
2023-05-01T13:56:48.347Z,101495.59
2023-05-01T13:59:17.343Z,101502.16
2023-05-01T14:01:46.440Z,101487.16
2023-05-01T14:04:21.101Z,101491.25
2023-05-01T14:06:49.814Z,101495.53
2023-05-01T14:09:18.526Z,101490.72
2023-05-01T14:11:48.060Z,101491.44
2023-05-01T14:14:17.063Z,101488.44
2023-05-01T14:16:48.668Z,101484.97
2023-05-01T14:19:18.545Z,101490.50
2023-05-01T14:21:46.877Z,101490.31
2023-05-01T14:24:17.718Z,101493.66
2023-05-01T14:26:48.866Z,101492.25
2023-05-01T14:29:23.929Z,101491.50
2023-05-01T14:31:52.626Z,101488.00
2023-05-01T14:34:22.507Z,101484.72
2023-05-01T14:36:50.335Z,101483.41
2023-05-01T14:39:19.518Z,101483.91
2023-05-01T14:41:48.938Z,101484.91
2023-05-01T14:44:18.947Z,101481.31
2023-05-01T14:46:51.145Z,101473.56
2023-05-01T14:49:21.950Z,101482.28
2023-05-01T14:51:50.062Z,101478.28
2023-05-01T14:54:18.808Z,101467.84
2023-05-01T14:56:48.282Z,101475.94
2023-05-01T14:59:16.888Z,101481.19
2023-05-01T15:01:44.905Z,101475.31
2023-05-01T15:04:13.166Z,101474.19
2023-05-01T15:06:42.532Z,101485.00
2023-05-01T15:09:10.386Z,101484.59
2023-05-01T15:11:38.162Z,101476.56
2023-05-01T15:14:05.960Z,101481.91
2023-05-01T15:16:33.816Z,101481.50
2023-05-01T15:19:01.776Z,101482.75
2023-05-01T15:21:29.568Z,101484.22
2023-05-01T15:23:58.733Z,101487.88
2023-05-01T15:26:26.539Z,101483.38
2023-05-01T15:28:54.584Z,101491.72
2023-05-01T15:31:22.810Z,101491.47
2023-05-01T15:33:50.753Z,101488.25
2023-05-01T15:36:18.767Z,101492.78
2023-05-01T15:38:47.543Z,101488.50
2023-05-01T15:41:18.842Z,101495.06
2023-05-01T15:43:47.096Z,101490.00
2023-05-01T15:46:16.259Z,101487.66
2023-05-01T15:48:44.226Z,101490.47
2023-05-01T15:51:12.054Z,101500.31
2023-05-01T15:53:39.872Z,101504.63
2023-05-01T15:56:09.644Z,101507.13
2023-05-01T15:58:38.855Z,101510.94
2023-05-01T16:01:08.824Z,101504.38
2023-05-01T16:03:37.162Z,101515.19
2023-05-01T16:06:05.253Z,101508.34
2023-05-01T16:08:33.906Z,101515.88
2023-05-01T16:11:02.000Z,101516.38
2023-05-01T16:13:29.890Z,101524.09
2023-05-01T16:15:59.078Z,101519.81
2023-05-01T16:18:27.038Z,101520.59
2023-05-01T16:20:58.544Z,101526.09
2023-05-01T16:23:29.996Z,101529.09
2023-05-01T16:25:58.129Z,101527.34
2023-05-01T16:28:26.501Z,101524.75
2023-05-01T16:30:54.401Z,101534.53
2023-05-01T16:33:24.318Z,101531.50
2023-05-01T16:35:52.122Z,101534.38
2023-05-01T16:38:20.614Z,101530.88
2023-05-01T16:40:49.106Z,101545.13
2023-05-01T16:43:17.119Z,101543.72
2023-05-01T16:45:48.093Z,101548.16
2023-05-01T16:48:21.677Z,101554.56
2023-05-01T16:50:52.824Z,101563.13
2023-05-01T16:53:21.393Z,101556.78
2023-05-01T16:55:49.178Z,101557.22
2023-05-01T16:58:16.935Z,101555.78
2023-05-01T17:00:44.673Z,101562.69
2023-05-01T17:03:12.489Z,101567.81
2023-05-01T17:05:40.341Z,101569.47
2023-05-01T17:08:09.570Z,101578.13
2023-05-01T17:10:38.386Z,101564.81
2023-05-01T17:13:07.113Z,101568.88
2023-05-01T17:15:34.943Z,101569.97
2023-05-01T17:18:02.760Z,101575.97
2023-05-01T17:20:30.535Z,101579.72
2023-05-01T17:22:58.831Z,101578.44
2023-05-01T17:25:27.939Z,101579.19
2023-05-01T17:27:55.755Z,101580.59
2023-05-01T17:30:23.566Z,101569.69
2023-05-01T17:32:51.869Z,101578.97
2023-05-01T17:35:19.692Z,101581.22
2023-05-01T17:37:47.479Z,101580.47
2023-05-01T17:40:15.322Z,101584.81
2023-05-01T17:42:44.491Z,101592.13
2023-05-01T17:45:12.885Z,101594.28
2023-05-01T17:47:42.954Z,101601.09
2023-05-01T17:50:12.903Z,101601.94
2023-05-01T17:52:41.946Z,101597.13
2023-05-01T17:55:10.387Z,101595.81
2023-05-01T17:57:39.883Z,101605.59
2023-05-01T18:00:11.485Z,101608.56
2023-05-01T18:02:44.742Z,101610.59
2023-05-01T18:05:13.134Z,101613.28
2023-05-01T18:07:41.017Z,101617.00
2023-05-01T18:10:10.784Z,101617.16
2023-05-01T18:12:38.584Z,101612.97
2023-05-01T18:15:06.883Z,101619.75
2023-05-01T18:17:36.047Z,101620.88
2023-05-01T18:20:04.165Z,101628.75
2023-05-01T18:22:32.066Z,101626.19
2023-05-01T18:25:00.294Z,101630.59
2023-05-01T18:27:28.099Z,101637.31
2023-05-01T18:29:56.173Z,101634.53
2023-05-01T18:32:32.966Z,101640.22
2023-05-01T18:35:09.693Z,101643.84
2023-05-01T18:37:37.546Z,101647.16
2023-05-01T18:40:06.234Z,101643.09
2023-05-01T18:42:34.035Z,101651.41
2023-05-01T18:45:01.994Z,101653.88
2023-05-01T18:47:29.805Z,101653.91
2023-05-01T18:49:58.853Z,101661.47
2023-05-01T18:52:30.006Z,101666.59
2023-05-01T18:54:57.637Z,101671.66
2023-05-01T18:57:25.446Z,101669.09
2023-05-01T18:59:53.211Z,101666.25
2023-05-01T19:02:21.102Z,101677.75
2023-05-01T19:04:57.250Z,101673.38
2023-05-01T19:07:26.124Z,101676.19
2023-05-01T19:09:58.040Z,101684.31
2023-05-01T19:12:28.629Z,101691.16
2023-05-01T19:14:56.415Z,101693.59
2023-05-01T19:17:24.334Z,101697.13
2023-05-01T19:19:52.199Z,101693.91
2023-05-01T19:22:19.998Z,101695.78
2023-05-01T19:24:47.779Z,101685.91
2023-05-01T19:27:18.072Z,101693.28
2023-05-01T19:29:46.001Z,101696.84
2023-05-01T19:32:13.842Z,101699.50
2023-05-01T19:34:41.747Z,101708.06
2023-05-01T19:37:09.590Z,101703.66
2023-05-01T19:39:37.463Z,101705.38
2023-05-01T19:42:05.381Z,101706.94
2023-05-01T19:44:34.515Z,101702.31
2023-05-01T19:47:02.297Z,101705.13
2023-05-01T19:49:30.458Z,101713.56
2023-05-01T19:51:58.409Z,101724.75
2023-05-01T19:54:27.032Z,101725.53
2023-05-01T19:56:54.836Z,101725.25
2023-05-01T19:59:22.672Z,101731.53
2023-05-01T20:01:52.020Z,101737.94
2023-05-01T20:04:22.965Z,101744.38
2023-05-01T20:06:50.893Z,101745.56
2023-05-01T20:09:18.718Z,101746.19
2023-05-01T20:11:46.532Z,101751.88
2023-05-01T20:14:15.050Z,101756.75
2023-05-01T20:16:42.912Z,101764.84
2023-05-01T20:19:12.595Z,101773.38
2023-05-01T20:21:40.459Z,101777.81
2023-05-01T20:24:08.276Z,101774.28
2023-05-01T20:26:36.112Z,101776.44
2023-05-01T20:29:03.953Z,101781.13
2023-05-01T20:31:32.031Z,101781.28
2023-05-01T20:33:59.906Z,101784.66
2023-05-01T20:36:29.451Z,101793.78
2023-05-01T20:38:57.855Z,101787.38
2023-05-01T20:41:25.783Z,101789.50
2023-05-01T20:43:53.543Z,101794.38
2023-05-01T20:46:22.079Z,101788.28
2023-05-01T20:48:49.876Z,101793.00
2023-05-01T20:51:17.961Z,101799.13
2023-05-01T20:53:47.321Z,101792.41
2023-05-01T20:56:15.087Z,101799.44
2023-05-01T20:58:42.946Z,101803.06
2023-05-01T21:01:10.806Z,101793.44
2023-05-01T21:03:39.234Z,101800.84
2023-05-01T21:06:07.143Z,101806.13
2023-05-01T21:08:35.195Z,101798.94
2023-05-01T21:11:04.315Z,101805.03
2023-05-01T21:13:32.967Z,101802.78
2023-05-01T21:16:02.622Z,101811.91
2023-05-01T21:18:34.422Z,101810.69
2023-05-01T21:21:03.027Z,101816.44
2023-05-01T21:23:31.107Z,101819.19
2023-05-01T21:25:58.961Z,101813.75
2023-05-01T21:28:28.376Z,101824.59
2023-05-01T21:30:56.488Z,101812.06
2023-05-01T21:33:25.118Z,101819.66
2023-05-01T21:35:52.899Z,101819.19
2023-05-01T21:38:20.936Z,101816.31
2023-05-01T21:40:48.746Z,101813.72
2023-05-01T21:43:17.216Z,101818.09
2023-05-01T21:45:46.471Z,101823.84
2023-05-01T21:48:16.726Z,101825.94
2023-05-01T21:50:44.589Z,101828.56
2023-05-01T21:53:12.382Z,101827.34
2023-05-01T21:55:40.252Z,101834.38
2023-05-01T21:58:08.012Z,101833.69
2023-05-01T22:00:35.891Z,101832.50
2023-05-01T22:03:08.355Z,101835.66
2023-05-01T22:05:40.774Z,101839.38
2023-05-01T22:08:08.651Z,101837.50
2023-05-01T22:10:36.584Z,101847.88
2023-05-01T22:13:06.437Z,101836.91
2023-05-01T22:15:34.341Z,101829.78
2023-05-01T22:18:02.218Z,101828.25
2023-05-01T22:20:32.316Z,101835.84
2023-05-01T22:23:00.227Z,101839.66
2023-05-01T22:25:28.517Z,101841.31
2023-05-01T22:27:56.379Z,101836.00
2023-05-01T22:30:24.138Z,101837.66
2023-05-01T22:32:51.971Z,101847.81
2023-05-01T22:35:19.773Z,101848.28
2023-05-01T22:37:48.922Z,101851.63
2023-05-01T22:40:16.779Z,101855.38
2023-05-01T22:42:44.806Z,101860.31
2023-05-01T22:45:12.743Z,101868.25
2023-05-01T22:47:40.801Z,101874.28
2023-05-01T22:50:09.652Z,101883.59
2023-05-01T22:52:37.467Z,101880.88
2023-05-01T22:55:08.033Z,101881.75
2023-05-01T22:57:35.846Z,101889.09
2023-05-01T23:00:03.818Z,101896.06
2023-05-01T23:02:31.647Z,101886.44
2023-05-01T23:04:59.499Z,101885.06
2023-05-01T23:07:27.272Z,101886.44
2023-05-01T23:09:57.155Z,101894.56
2023-05-01T23:12:27.720Z,101898.63
2023-05-01T23:14:56.200Z,101903.00
2023-05-01T23:17:24.134Z,101909.06
2023-05-01T23:19:51.906Z,101914.41
2023-05-01T23:22:20.378Z,101910.59
2023-05-01T23:24:49.832Z,101912.69
2023-05-01T23:27:19.614Z,101918.47
2023-05-01T23:29:55.078Z,101921.78
2023-05-01T23:32:27.957Z,101932.53
2023-05-01T23:35:00.162Z,101927.28
2023-05-01T23:37:27.963Z,101929.50
2023-05-01T23:39:55.699Z,101940.22
2023-05-01T23:42:23.797Z,101931.63
2023-05-01T23:44:53.055Z,101931.69
2023-05-01T23:47:21.650Z,101942.78
2023-05-01T23:49:49.836Z,101937.41
2023-05-01T23:52:17.600Z,101938.28
2023-05-01T23:54:45.362Z,101935.09
2023-05-01T23:57:13.140Z,101944.50
2023-05-01T23:59:40.877Z,101934.22
